createdAt,value
2022-10-04T00:01:21.232Z,99456.34
2022-10-04T00:04:04.274Z,99446.47
2022-10-04T00:06:31.779Z,99437.88
2022-10-04T00:09:10.205Z,99440.94
2022-10-04T00:11:41.835Z,99443.03
2022-10-04T00:14:18.727Z,99444.03
2022-10-04T00:16:52.895Z,99441.63
2022-10-04T00:19:22.326Z,99440.97
2022-10-04T00:21:56.006Z,99443.59
2022-10-04T00:24:23.881Z,99449.59
2022-10-04T00:26:56.255Z,99441.13
2022-10-04T00:30:11.537Z,99434.03
2022-10-04T00:33:03.870Z,99433.56
2022-10-04T00:35:30.724Z,99435.38
2022-10-04T00:38:00.801Z,99427.91
2022-10-04T00:40:40.082Z,99417.22
2022-10-04T00:43:38.332Z,99415.47
2022-10-04T00:46:13.525Z,99415.94
2022-10-04T00:48:51.723Z,99410.31
2022-10-04T00:51:49.710Z,99413.06
2022-10-04T00:54:31.110Z,99417.75
2022-10-04T00:57:10.502Z,99422.63
2022-10-04T00:59:51.069Z,99426.19
2022-10-04T01:02:35.366Z,99421.16
2022-10-04T01:05:31.680Z,99419.84
2022-10-04T01:08:31.456Z,99419.53
2022-10-04T01:11:12.073Z,99407.44
2022-10-04T01:13:51.189Z,99413.28
2022-10-04T01:16:28.266Z,99411.00
2022-10-04T01:18:56.814Z,99418.59
2022-10-04T01:21:34.176Z,99419.91
2022-10-04T01:24:08.254Z,99424.28
2022-10-04T01:26:43.887Z,99433.84
2022-10-04T01:29:33.862Z,99415.91
2022-10-04T01:32:06.865Z,99419.44
2022-10-04T01:34:47.027Z,99415.59
2022-10-04T01:37:16.042Z,99419.09
2022-10-04T01:39:45.716Z,99418.97
2022-10-04T01:42:23.945Z,99418.16
2022-10-04T01:45:01.937Z,99416.41
2022-10-04T01:47:45.133Z,99408.16
2022-10-04T01:50:23.086Z,99409.94
2022-10-04T01:53:05.770Z,99413.03
2022-10-04T01:55:38.479Z,99408.66
2022-10-04T01:58:08.364Z,99413.66
2022-10-04T02:00:41.474Z,99403.16
2022-10-04T02:03:25.335Z,99398.44
2022-10-04T02:06:01.872Z,99399.91
2022-10-04T02:08:35.632Z,99382.59
2022-10-04T02:11:13.419Z,99396.84
2022-10-04T02:13:43.433Z,99383.72
2022-10-04T02:16:23.156Z,99375.81
2022-10-04T02:18:56.974Z,99385.19
2022-10-04T02:21:27.502Z,99391.19
2022-10-04T02:23:57.745Z,99390.38
2022-10-04T02:26:28.070Z,99382.63
2022-10-04T02:28:55.472Z,99384.56
2022-10-04T02:31:42.637Z,99384.38
2022-10-04T02:34:13.540Z,99381.97
2022-10-04T02:36:47.660Z,99381.31
2022-10-04T02:39:41.576Z,99370.66
2022-10-04T02:42:43.118Z,99362.91
2022-10-04T02:45:23.053Z,99361.44
2022-10-04T02:48:06.592Z,99358.50
2022-10-04T02:50:53.046Z,99354.00
2022-10-04T02:54:03.380Z,99358.19
2022-10-04T02:56:34.359Z,99362.06
2022-10-04T02:59:14.412Z,99368.53
2022-10-04T03:02:02.061Z,99372.75
2022-10-04T03:04:46.267Z,99366.94
2022-10-04T03:07:21.013Z,99366.78
2022-10-04T03:09:54.390Z,99379.53
2022-10-04T03:12:41.339Z,99384.22
2022-10-04T03:15:21.933Z,99379.53
2022-10-04T03:17:54.300Z,99380.63
2022-10-04T03:23:15.158Z,99385.34
2022-10-04T03:25:53.641Z,99391.16
2022-10-04T03:28:39.111Z,99394.38
2022-10-04T03:31:16.737Z,99388.72
2022-10-04T03:33:56.104Z,99385.66
2022-10-04T03:36:28.853Z,99371.94
2022-10-04T03:39:02.170Z,99373.88
2022-10-04T03:41:43.793Z,99369.19
2022-10-04T03:44:19.634Z,99372.25
2022-10-04T03:47:01.208Z,99373.69
2022-10-04T03:49:51.441Z,99359.91
2022-10-04T03:52:59.348Z,99351.78
2022-10-04T03:55:43.715Z,99358.75
2022-10-04T03:58:40.555Z,99373.16
2022-10-04T04:01:59.016Z,99360.69
2022-10-04T04:05:00.759Z,99359.41
2022-10-04T04:14:49.603Z,99353.88
2022-10-04T04:18:06.211Z,99336.25
2022-10-04T04:20:43.133Z,99340.00
2022-10-04T04:23:27.920Z,99340.31
2022-10-04T04:26:23.422Z,99349.50
2022-10-04T04:29:29.067Z,99351.94
2022-10-04T04:32:38.575Z,99342.09
2022-10-04T04:45:07.141Z,99370.59
2022-10-04T04:47:54.590Z,99380.31
2022-10-04T04:57:41.363Z,99359.56
2022-10-04T05:00:25.130Z,99358.91
2022-10-04T05:02:58.776Z,99360.19
2022-10-04T05:05:28.907Z,99349.19
2022-10-04T05:08:10.662Z,99348.72
2022-10-04T05:11:08.968Z,99341.41
2022-10-04T05:13:58.445Z,99351.75
2022-10-04T05:16:32.712Z,99345.94
2022-10-04T05:19:05.853Z,99342.41
2022-10-04T05:21:40.855Z,99343.03
2022-10-04T05:24:28.430Z,99361.31
2022-10-04T05:27:03.229Z,99347.09
2022-10-04T05:29:37.955Z,99354.69
2022-10-04T05:36:02.067Z,99355.81
2022-10-04T05:38:40.606Z,99353.84
2022-10-04T05:41:14.468Z,99359.84
2022-10-04T05:43:50.477Z,99360.31
2022-10-04T05:46:29.193Z,99344.75
2022-10-04T05:49:26.818Z,99345.06
2022-10-04T05:52:32.376Z,99344.47
2022-10-04T05:55:21.199Z,99351.34
2022-10-04T05:58:18.328Z,99347.94
2022-10-04T06:01:03.647Z,99349.38
2022-10-04T06:04:06.621Z,99358.13
2022-10-04T06:06:57.294Z,99353.22
2022-10-04T06:09:36.077Z,99364.34
2022-10-04T06:12:44.388Z,99366.56
2022-10-04T06:15:45.336Z,99361.34
2022-10-04T06:18:31.783Z,99367.63
2022-10-04T06:21:37.096Z,99374.09
2022-10-04T06:24:30.309Z,99374.38
2022-10-04T06:27:17.848Z,99382.28
2022-10-04T06:29:56.527Z,99376.84
2022-10-04T06:32:54.123Z,99382.03
2022-10-04T06:35:35.982Z,99377.13
2022-10-04T06:38:31.494Z,99383.91
2022-10-04T06:41:20.839Z,99380.94
2022-10-04T06:44:16.090Z,99382.13
2022-10-04T06:47:38.946Z,99373.31
2022-10-04T06:50:26.914Z,99371.63
2022-10-04T06:53:28.095Z,99376.66
2022-10-04T06:56:08.056Z,99380.69
2022-10-04T06:58:50.328Z,99368.66
2022-10-04T07:01:31.148Z,99370.66
2022-10-04T07:04:45.055Z,99371.19
2022-10-04T07:07:49.830Z,99376.66
2022-10-04T07:10:55.191Z,99371.50
2022-10-04T07:13:27.702Z,99374.53
2022-10-04T07:16:15.344Z,99373.88
2022-10-04T07:19:06.077Z,99383.97
2022-10-04T07:21:56.191Z,99382.06
2022-10-04T07:24:49.995Z,99387.25
2022-10-04T07:27:38.652Z,99389.53
2022-10-04T07:30:16.440Z,99392.28
2022-10-04T07:32:50.388Z,99397.94
2022-10-04T07:35:36.034Z,99385.84
2022-10-04T07:38:34.938Z,99386.91
2022-10-04T07:41:07.623Z,99395.50
2022-10-04T07:44:06.704Z,99401.44
2022-10-04T07:46:42.524Z,99386.25
2022-10-04T07:49:20.738Z,99390.16
2022-10-04T07:51:57.433Z,99389.72
2022-10-04T07:54:38.294Z,99404.00
2022-10-04T07:58:11.930Z,99413.44
2022-10-04T08:01:02.267Z,99411.56
2022-10-04T08:03:48.630Z,99422.44
2022-10-04T08:06:34.801Z,99399.03
2022-10-04T08:09:38.240Z,99406.94
2022-10-04T08:12:13.959Z,99400.94
2022-10-04T08:14:55.070Z,99403.41
2022-10-04T08:17:43.380Z,99399.38
2022-10-04T08:20:55.753Z,99392.19
2022-10-04T08:23:54.842Z,99408.25
2022-10-04T08:26:43.935Z,99408.34
2022-10-04T08:29:43.838Z,99400.16
2022-10-04T08:32:39.006Z,99411.75
2022-10-04T08:35:49.038Z,99410.25
2022-10-04T08:38:34.909Z,99414.94
2022-10-04T08:41:13.158Z,99409.56
2022-10-04T08:44:19.819Z,99401.97
2022-10-04T08:47:29.201Z,99396.75
2022-10-04T08:50:29.116Z,99393.56
2022-10-04T08:53:40.133Z,99416.25
2022-10-04T08:56:25.147Z,99417.31
2022-10-04T08:59:06.916Z,99412.06
2022-10-04T09:02:32.693Z,99411.66
2022-10-04T09:05:42.369Z,99403.44
2022-10-04T09:08:46.651Z,99408.84
2022-10-04T09:11:58.583Z,99402.41
2022-10-04T09:15:00.675Z,99411.81
2022-10-04T09:18:05.407Z,99417.25
2022-10-04T09:21:06.454Z,99418.63
2022-10-04T09:23:48.126Z,99411.94
2022-10-04T09:26:23.816Z,99403.44
2022-10-04T09:29:08.809Z,99395.91
2022-10-04T09:32:05.990Z,99394.25
2022-10-04T09:35:13.325Z,99391.50
2022-10-04T09:37:59.587Z,99379.19
2022-10-04T09:41:03.851Z,99389.91
2022-10-04T09:43:52.938Z,99385.41
2022-10-04T09:47:05.017Z,99383.75
2022-10-04T09:50:14.459Z,99389.69
2022-10-04T09:53:20.268Z,99387.66
2022-10-04T09:56:42.820Z,99391.91
2022-10-04T09:59:22.784Z,99392.81
2022-10-04T10:02:07.618Z,99390.56
2022-10-04T10:05:00.205Z,99392.31
2022-10-04T10:07:42.061Z,99389.19
2022-10-04T10:11:21.553Z,99384.88
2022-10-04T10:14:06.936Z,99392.94
2022-10-04T10:17:00.920Z,99392.75
2022-10-04T10:19:33.653Z,99378.44
2022-10-04T10:22:32.375Z,99380.38
2022-10-04T10:25:44.645Z,99377.25
2022-10-04T10:28:33.822Z,99370.34
2022-10-04T10:31:38.835Z,99373.53
2022-10-04T10:34:44.532Z,99380.28
2022-10-04T10:37:18.950Z,99373.03
2022-10-04T10:40:00.961Z,99379.03
2022-10-04T10:42:59.706Z,99380.06
2022-10-04T10:46:09.216Z,99369.66
2022-10-04T10:48:56.387Z,99368.75
2022-10-04T10:51:40.253Z,99367.94
2022-10-04T10:54:43.604Z,99360.75
2022-10-04T10:57:35.027Z,99364.28
2022-10-04T11:00:20.849Z,99363.47
2022-10-04T11:03:07.333Z,99356.59
2022-10-04T11:06:18.471Z,99342.91
2022-10-04T11:09:18.461Z,99347.47
2022-10-04T11:12:02.774Z,99338.75
2022-10-04T11:15:17.416Z,99342.53
2022-10-04T11:18:12.284Z,99342.84
2022-10-04T11:21:28.204Z,99333.97
2022-10-04T11:24:18.813Z,99336.16
2022-10-04T11:27:13.758Z,99324.06
2022-10-04T11:30:04.417Z,99319.97
2022-10-04T11:32:51.737Z,99317.25
2022-10-04T11:39:09.325Z,99308.34
2022-10-04T11:41:49.785Z,99316.09
2022-10-04T11:44:41.138Z,99315.78
2022-10-04T11:47:08.730Z,99314.44
2022-10-04T11:50:06.810Z,99315.69
2022-10-04T11:53:18.152Z,99316.94
2022-10-04T11:56:04.943Z,99313.91
2022-10-04T11:58:36.790Z,99319.81
2022-10-04T12:01:32.133Z,99311.34
2022-10-04T12:04:30.998Z,99320.06
2022-10-04T12:07:27.446Z,99312.81
2022-10-04T12:10:14.143Z,99312.94
2022-10-04T12:12:53.142Z,99308.97
2022-10-04T12:15:41.773Z,99304.50
2022-10-04T12:18:43.750Z,99304.50
2022-10-04T12:25:27.261Z,99299.78
2022-10-04T12:28:17.458Z,99295.97
2022-10-04T12:31:36.293Z,99300.09
2022-10-04T12:34:45.308Z,99295.06
2022-10-04T12:37:55.714Z,99284.84
2022-10-04T12:40:48.604Z,99281.97
2022-10-04T12:43:45.368Z,99292.28
2022-10-04T12:46:35.666Z,99287.72
2022-10-04T12:49:20.597Z,99291.56
2022-10-04T12:52:16.299Z,99291.22
2022-10-04T12:55:05.239Z,99286.03
2022-10-04T12:57:59.589Z,99284.50
2022-10-04T13:00:53.225Z,99269.25
2022-10-04T13:03:59.361Z,99278.81
2022-10-04T13:06:54.986Z,99278.38
2022-10-04T13:09:40.158Z,99275.09
2022-10-04T13:12:20.309Z,99283.09
2022-10-04T13:14:57.050Z,99275.25
2022-10-04T13:17:54.065Z,99276.06
2022-10-04T13:21:15.207Z,99270.47
2022-10-04T13:24:55.542Z,99266.25
2022-10-04T13:27:45.325Z,99257.56
2022-10-04T13:33:42.593Z,99265.84
2022-10-04T13:36:31.548Z,99262.81
2022-10-04T13:39:49.290Z,99266.13
2022-10-04T13:42:52.561Z,99268.66
2022-10-04T13:45:31.341Z,99257.97
2022-10-04T13:52:13.896Z,99254.06
2022-10-04T13:55:42.065Z,99254.53
2022-10-04T13:58:32.813Z,99255.44
2022-10-04T14:01:44.779Z,99253.59
2022-10-04T14:04:38.586Z,99248.63
2022-10-04T14:11:11.815Z,99264.81
2022-10-04T14:17:21.502Z,99253.88
2022-10-04T14:20:15.253Z,99247.66
2022-10-04T14:23:15.093Z,99249.59
2022-10-04T14:26:42.686Z,99245.50
2022-10-04T14:29:18.604Z,99248.78
2022-10-04T14:32:44.052Z,99245.19
2022-10-04T14:36:00.104Z,99243.50
2022-10-04T14:39:32.487Z,99239.19
2022-10-04T14:42:36.010Z,99237.22
2022-10-04T14:46:09.997Z,99244.63
2022-10-04T14:49:22.377Z,99232.00
2022-10-04T14:53:00.613Z,99237.28
2022-10-04T14:56:41.009Z,99236.25
2022-10-04T15:00:03.256Z,99222.09
2022-10-04T15:03:05.371Z,99227.22
2022-10-04T15:06:10.100Z,99221.22
2022-10-04T15:09:03.715Z,99227.22
2022-10-04T15:12:29.515Z,99222.03
2022-10-04T15:15:42.270Z,99217.25
2022-10-04T15:18:44.827Z,99221.31
2022-10-04T15:21:23.613Z,99218.09
2022-10-04T15:24:40.535Z,99211.66
2022-10-04T15:27:51.629Z,99195.31
2022-10-04T15:37:47.554Z,99194.63
2022-10-04T15:40:37.865Z,99197.09
2022-10-04T15:43:20.691Z,99188.88
2022-10-04T15:46:14.096Z,99189.75
2022-10-04T15:52:30.637Z,99185.34
2022-10-04T15:55:48.915Z,99186.88
2022-10-04T15:59:01.606Z,99193.22
2022-10-04T16:02:20.914Z,99191.06
2022-10-04T16:05:15.830Z,99199.09
2022-10-04T16:08:13.092Z,99202.34
2022-10-04T16:11:27.566Z,99202.94
2022-10-04T16:14:20.117Z,99201.75
2022-10-04T16:17:23.463Z,99202.22
2022-10-04T16:20:05.604Z,99198.91
2022-10-04T16:22:41.682Z,99198.22
2022-10-04T16:25:26.338Z,99209.03
2022-10-04T16:28:07.851Z,99201.63
2022-10-04T16:31:02.864Z,99198.75
2022-10-04T16:33:43.301Z,99196.59
2022-10-04T16:36:43.498Z,99198.78
2022-10-04T16:39:59.794Z,99197.75
2022-10-04T16:42:35.358Z,99189.19
2022-10-04T16:45:44.317Z,99191.56
2022-10-04T16:48:33.905Z,99185.53
2022-10-04T16:51:26.331Z,99194.41
2022-10-04T16:54:59.135Z,99196.56
2022-10-04T16:57:29.690Z,99199.25
2022-10-04T17:00:04.922Z,99193.28
2022-10-04T17:03:09.844Z,99193.94
2022-10-04T17:05:54.284Z,99189.94
2022-10-04T17:08:47.740Z,99196.84
2022-10-04T17:11:39.278Z,99203.84
2022-10-04T17:15:03.149Z,99205.75
2022-10-04T17:17:45.802Z,99215.56
2022-10-04T17:20:45.948Z,99220.28
2022-10-04T17:23:31.519Z,99237.25
2022-10-04T17:26:19.409Z,99238.41
2022-10-04T17:29:05.492Z,99224.81
2022-10-04T17:31:55.893Z,99223.25
2022-10-04T17:34:48.112Z,99227.91
2022-10-04T17:37:33.260Z,99224.25
2022-10-04T17:40:17.858Z,99234.97
2022-10-04T17:43:16.148Z,99234.97
2022-10-04T17:46:01.371Z,99229.78
2022-10-04T17:48:51.426Z,99226.63
2022-10-04T17:51:43.891Z,99220.25
2022-10-04T17:54:50.719Z,99219.09
2022-10-04T17:57:37.811Z,99218.16
2022-10-04T18:00:27.362Z,99220.03
2022-10-04T18:03:52.242Z,99221.94
2022-10-04T18:07:00.695Z,99214.16
2022-10-04T18:09:36.490Z,99207.19
2022-10-04T18:12:39.158Z,99210.22
2022-10-04T18:15:47.131Z,99211.91
2022-10-04T18:18:19.013Z,99209.53
2022-10-04T18:20:54.805Z,99218.59
2022-10-04T18:23:25.481Z,99212.97
2022-10-04T18:26:05.408Z,99209.59
2022-10-04T18:29:21.491Z,99204.78
2022-10-04T18:31:48.252Z,99206.78
2022-10-04T18:34:29.028Z,99207.81
2022-10-04T18:36:55.627Z,99222.47
2022-10-04T18:39:39.124Z,99226.09
2022-10-04T18:42:32.465Z,99241.16
2022-10-04T18:45:29.146Z,99232.94
2022-10-04T18:48:09.416Z,99243.81
2022-10-04T18:50:55.470Z,99246.22
2022-10-04T18:53:41.849Z,99236.56
2022-10-04T18:56:10.669Z,99255.22
2022-10-04T18:59:13.475Z,99252.25
2022-10-04T19:02:03.846Z,99258.84
2022-10-04T19:04:33.719Z,99263.88
2022-10-04T19:07:16.334Z,99253.25
2022-10-04T19:10:04.663Z,99252.03
2022-10-04T19:12:46.018Z,99249.41
2022-10-04T19:15:40.956Z,99263.84
2022-10-04T19:18:43.928Z,99251.81
2022-10-04T19:21:57.018Z,99247.41
2022-10-04T19:24:40.081Z,99249.00
2022-10-04T19:27:31.714Z,99248.81
2022-10-04T19:30:03.139Z,99256.84
2022-10-04T19:32:50.783Z,99248.81
2022-10-04T19:35:36.712Z,99254.03
2022-10-04T19:38:23.473Z,99254.03
2022-10-04T19:41:14.919Z,99258.00
2022-10-04T19:44:05.731Z,99256.00
2022-10-04T19:46:53.576Z,99258.38
2022-10-04T19:49:33.664Z,99254.56
2022-10-04T19:52:45.664Z,99258.34
2022-10-04T19:55:44.074Z,99257.72
2022-10-04T19:59:07.314Z,99262.13
2022-10-04T20:01:40.171Z,99264.50
2022-10-04T20:04:40.844Z,99261.72
2022-10-04T20:07:21.409Z,99261.28
2022-10-04T20:09:56.757Z,99268.31
2022-10-04T20:12:39.210Z,99266.28
2022-10-04T20:15:25.128Z,99273.06
2022-10-04T20:17:56.536Z,99274.88
2022-10-04T20:20:41.671Z,99283.88
2022-10-04T20:23:14.656Z,99283.22
2022-10-04T20:25:53.181Z,99277.75
2022-10-04T20:28:44.151Z,99282.75
2022-10-04T20:31:25.517Z,99283.78
2022-10-04T20:33:52.643Z,99287.56
2022-10-04T20:36:19.229Z,99289.97
2022-10-04T20:39:01.085Z,99287.38
2022-10-04T20:41:54.775Z,99284.72
2022-10-04T20:44:57.279Z,99299.72
2022-10-04T20:47:48.443Z,99297.50
2022-10-04T20:50:24.169Z,99302.28
2022-10-04T20:52:55.912Z,99305.28
2022-10-04T20:55:37.116Z,99306.09
2022-10-04T20:58:27.273Z,99311.31
2022-10-04T21:01:40.356Z,99310.50
2022-10-04T21:04:31.362Z,99309.47
2022-10-04T21:07:20.772Z,99320.66
2022-10-04T21:09:53.364Z,99318.81
2022-10-04T21:12:38.448Z,99325.63
2022-10-04T21:15:17.411Z,99323.41
2022-10-04T21:18:00.028Z,99323.59
2022-10-04T21:20:50.169Z,99329.16
2022-10-04T21:23:33.078Z,99322.22
2022-10-04T21:26:24.542Z,99319.38
2022-10-04T21:28:58.610Z,99318.59
2022-10-04T21:31:26.037Z,99322.38
2022-10-04T21:33:54.200Z,99322.16
2022-10-04T21:36:31.483Z,99311.16
2022-10-04T21:38:58.285Z,99312.75
2022-10-04T21:41:30.478Z,99319.34
2022-10-04T21:44:03.907Z,99310.91
2022-10-04T21:46:38.477Z,99307.88
2022-10-04T21:49:12.741Z,99315.69
2022-10-04T21:51:40.461Z,99315.63
2022-10-04T21:54:07.660Z,99304.44
2022-10-04T21:56:36.637Z,99313.22
2022-10-04T21:59:06.128Z,99317.38
2022-10-04T22:01:42.278Z,99313.59
2022-10-04T22:04:10.292Z,99314.19
2022-10-04T22:06:36.978Z,99314.91
2022-10-04T22:09:05.489Z,99319.94
2022-10-04T22:11:32.277Z,99305.53
2022-10-04T22:14:01.428Z,99312.13
2022-10-04T22:16:28.266Z,99306.13
2022-10-04T22:18:55.709Z,99313.94
2022-10-04T22:21:22.607Z,99311.88
2022-10-04T22:23:49.376Z,99313.69
2022-10-04T22:26:22.470Z,99320.31
2022-10-04T22:28:51.394Z,99318.09
2022-10-04T22:31:21.506Z,99320.47
2022-10-04T22:33:50.569Z,99321.84
2022-10-04T22:36:23.150Z,99322.03
2022-10-04T22:39:01.072Z,99313.97
2022-10-04T22:41:38.324Z,99304.72
2022-10-04T22:44:20.094Z,99306.94
2022-10-04T22:46:53.062Z,99298.50
2022-10-04T22:49:27.037Z,99288.31
2022-10-04T22:51:55.894Z,99283.72
2022-10-04T22:54:26.467Z,99280.13
2022-10-04T22:56:54.059Z,99272.50
2022-10-04T22:59:23.163Z,99264.91
2022-10-04T23:01:49.958Z,99261.69
2022-10-04T23:04:25.231Z,99252.84
2022-10-04T23:06:53.504Z,99245.97
2022-10-04T23:09:22.157Z,99250.31
2022-10-04T23:11:51.552Z,99253.25
2022-10-04T23:14:30.029Z,99253.84
2022-10-04T23:16:56.947Z,99251.78
2022-10-04T23:19:23.599Z,99259.75
2022-10-04T23:21:50.226Z,99258.69
2022-10-04T23:24:30.322Z,99247.50
2022-10-04T23:26:57.240Z,99240.50
2022-10-04T23:29:33.250Z,99241.63
2022-10-04T23:32:12.191Z,99241.00
2022-10-04T23:34:54.285Z,99228.28
2022-10-04T23:37:31.688Z,99220.84
2022-10-04T23:40:01.392Z,99225.66
2022-10-04T23:42:32.913Z,99224.88
2022-10-04T23:45:02.742Z,99223.44
2022-10-04T23:47:37.080Z,99228.13
2022-10-04T23:50:19.916Z,99225.16
2022-10-04T23:52:47.099Z,99225.78
2022-10-04T23:55:20.133Z,99214.44
2022-10-04T23:57:49.476Z,99218.00
